sensor_id;sensor_type;location;lat;lon;timestamp;pressure;altitude;pressure_sealevel;temperature;humidity
28630;BME280;15817;42.130;24.762;2023-05-02T00:02:19;100335.88;;;15.77;79.35
28630;BME280;15817;42.130;24.762;2023-05-02T00:04:45;100329.59;;;15.78;79.43
28630;BME280;15817;42.130;24.762;2023-05-02T00:07:11;100329.69;;;15.73;79.78
28630;BME280;15817;42.130;24.762;2023-05-02T00:09:37;100341.31;;;15.72;79.71
28630;BME280;15817;42.130;24.762;2023-05-02T00:12:03;100343.00;;;15.78;79.42
28630;BME280;15817;42.130;24.762;2023-05-02T00:14:29;100328.97;;;15.65;79.24
28630;BME280;15817;42.130;24.762;2023-05-02T00:16:55;100347.56;;;15.73;78.84
28630;BME280;15817;42.130;24.762;2023-05-02T00:19:20;100345.75;;;15.75;79.19
28630;BME280;15817;42.130;24.762;2023-05-02T00:21:47;100350.28;;;15.71;78.71
28630;BME280;15817;42.130;24.762;2023-05-02T00:24:14;100345.25;;;15.54;79.17
28630;BME280;15817;42.130;24.762;2023-05-02T00:26:40;100334.78;;;15.38;79.93
28630;BME280;15817;42.130;24.762;2023-05-02T00:29:06;100346.63;;;15.25;81.22
28630;BME280;15817;42.130;24.762;2023-05-02T00:31:32;100339.66;;;15.14;82.50
28630;BME280;15817;42.130;24.762;2023-05-02T00:33:58;100341.41;;;15.17;82.48
28630;BME280;15817;42.130;24.762;2023-05-02T00:36:26;100356.47;;;15.24;82.23
28630;BME280;15817;42.130;24.762;2023-05-02T00:38:52;100348.53;;;15.19;82.42
28630;BME280;15817;42.130;24.762;2023-05-02T00:41:18;100349.41;;;15.20;82.19
28630;BME280;15817;42.130;24.762;2023-05-02T00:43:44;100356.63;;;15.15;82.10
28630;BME280;15817;42.130;24.762;2023-05-02T00:46:10;100367.31;;;15.16;81.40
28630;BME280;15817;42.130;24.762;2023-05-02T00:48:37;100364.78;;;15.09;81.97
28630;BME280;15817;42.130;24.762;2023-05-02T00:51:03;100364.75;;;15.10;81.96
28630;BME280;15817;42.130;24.762;2023-05-02T00:53:30;100374.66;;;15.04;82.67
28630;BME280;15817;42.130;24.762;2023-05-02T00:56:01;100356.94;;;14.97;82.71
28630;BME280;15817;42.130;24.762;2023-05-02T00:58:27;100356.06;;;14.96;82.43
28630;BME280;15817;42.130;24.762;2023-05-02T01:04:59;100364.66;;;15.15;81.06
28630;BME280;15817;42.130;24.762;2023-05-02T01:07:17;100372.75;;;15.12;80.68
28630;BME280;15817;42.130;24.762;2023-05-02T01:12:39;100359.44;;;15.07;80.29
28630;BME280;15817;42.130;24.762;2023-05-02T01:15:09;100368.38;;;15.06;80.91
28630;BME280;15817;42.130;24.762;2023-05-02T01:17:36;100374.63;;;15.08;80.55
28630;BME280;15817;42.130;24.762;2023-05-02T01:20:10;100372.09;;;14.98;80.21
28630;BME280;15817;42.130;24.762;2023-05-02T01:22:38;100372.19;;;14.92;80.28
28630;BME280;15817;42.130;24.762;2023-05-02T01:25:19;100376.75;;;14.87;80.89
28630;BME280;15817;42.130;24.762;2023-05-02T01:30:21;100377.13;;;14.61;81.86
28630;BME280;15817;42.130;24.762;2023-05-02T01:32:50;100372.66;;;14.60;82.63
28630;BME280;15817;42.130;24.762;2023-05-02T01:35:17;100373.53;;;14.62;83.24
28630;BME280;15817;42.130;24.762;2023-05-02T01:37:45;100375.38;;;14.57;83.43
28630;BME280;15817;42.130;24.762;2023-05-02T01:40:16;100373.59;;;14.56;83.92
28630;BME280;15817;42.130;24.762;2023-05-02T01:42:45;100373.63;;;14.54;83.87
28630;BME280;15817;42.130;24.762;2023-05-02T01:45:15;100370.91;;;14.59;83.49
28630;BME280;15817;42.130;24.762;2023-05-02T01:47:42;100380.53;;;14.70;82.50
28630;BME280;15817;42.130;24.762;2023-05-02T01:50:20;100372.72;;;14.55;80.96
28630;BME280;15817;42.130;24.762;2023-05-02T01:52:49;100370.16;;;14.47;81.31
28630;BME280;15817;42.130;24.762;2023-05-02T01:55:16;100377.31;;;14.45;81.58
28630;BME280;15817;42.130;24.762;2023-05-02T01:57:45;100379.97;;;14.48;81.49
28630;BME280;15817;42.130;24.762;2023-05-02T02:00:13;100370.19;;;14.44;81.04
28630;BME280;15817;42.130;24.762;2023-05-02T02:02:42;100383.56;;;14.46;81.01
28630;BME280;15817;42.130;24.762;2023-05-02T02:05:12;100395.25;;;14.42;80.11
28630;BME280;15817;42.130;24.762;2023-05-02T02:07:39;100372.06;;;14.36;79.86
28630;BME280;15817;42.130;24.762;2023-05-02T02:10:05;100380.91;;;14.44;79.38
28630;BME280;15817;42.130;24.762;2023-05-02T02:12:37;100384.56;;;14.34;79.17
28630;BME280;15817;42.130;24.762;2023-05-02T02:17:56;100380.25;;;14.24;78.67
28630;BME280;15817;42.130;24.762;2023-05-02T02:20:24;100383.81;;;14.26;79.03
28630;BME280;15817;42.130;24.762;2023-05-02T02:22:52;100379.38;;;14.24;78.70
28630;BME280;15817;42.130;24.762;2023-05-02T02:25:18;100374.94;;;14.21;78.84
28630;BME280;15817;42.130;24.762;2023-05-02T02:27:44;100371.47;;;14.14;78.11
28630;BME280;15817;42.130;24.762;2023-05-02T02:30:10;100377.69;;;14.15;78.42
28630;BME280;15817;42.130;24.762;2023-05-02T02:32:36;100385.72;;;14.15;78.19
28630;BME280;15817;42.130;24.762;2023-05-02T02:35:02;100386.59;;;14.19;78.62
28630;BME280;15817;42.130;24.762;2023-05-02T02:37:38;100392.03;;;14.08;77.77
28630;BME280;15817;42.130;24.762;2023-05-02T02:40:29;100395.69;;;13.99;78.04
28630;BME280;15817;42.130;24.762;2023-05-02T02:43:12;100385.97;;;13.95;78.57
28630;BME280;15817;42.130;24.762;2023-05-02T02:45:47;100395.69;;;14.02;78.70
28630;BME280;15817;42.130;24.762;2023-05-02T02:57:09;100405.00;;;13.65;81.75
28630;BME280;15817;42.130;24.762;2023-05-02T02:59:47;100403.22;;;13.62;82.91
28630;BME280;15817;42.130;24.762;2023-05-02T03:02:16;100408.56;;;13.64;82.77
28630;BME280;15817;42.130;24.762;2023-05-02T03:04:52;100410.56;;;13.40;83.39
28630;BME280;15817;42.130;24.762;2023-05-02T03:07:18;100406.16;;;13.38;84.38
28630;BME280;15817;42.130;24.762;2023-05-02T03:09:45;100399.06;;;13.31;84.94
28630;BME280;15817;42.130;24.762;2023-05-02T03:12:16;100399.97;;;13.30;85.17
28630;BME280;15817;42.130;24.762;2023-05-02T03:14:44;100412.53;;;13.16;85.70
28630;BME280;15817;42.130;24.762;2023-05-02T03:17:10;100420.56;;;13.10;87.02
28630;BME280;15817;42.130;24.762;2023-05-02T03:19:36;100420.66;;;13.02;88.28
28630;BME280;15817;42.130;24.762;2023-05-02T03:22:04;100424.19;;;13.02;88.67
28630;BME280;15817;42.130;24.762;2023-05-02T03:24:30;100422.47;;;12.94;88.67
28630;BME280;15817;42.130;24.762;2023-05-02T03:26:57;100419.84;;;12.83;88.99
28630;BME280;15817;42.130;24.762;2023-05-02T03:29:28;100434.06;;;12.91;89.19
28630;BME280;15817;42.130;24.762;2023-05-02T03:31:53;100419.84;;;12.88;89.26
28630;BME280;15817;42.130;24.762;2023-05-02T03:34:21;100426.91;;;12.96;89.37
28630;BME280;15817;42.130;24.762;2023-05-02T03:36:47;100433.09;;;13.01;89.25
28630;BME280;15817;42.130;24.762;2023-05-02T03:39:14;100446.41;;;13.07;89.18
28630;BME280;15817;42.130;24.762;2023-05-02T03:41:40;100437.59;;;12.93;89.65
28630;BME280;15817;42.130;24.762;2023-05-02T03:44:11;100441.13;;;12.95;90.00
28630;BME280;15817;42.130;24.762;2023-05-02T03:46:37;100450.94;;;12.96;89.63
28630;BME280;15817;42.130;24.762;2023-05-02T03:49:07;100442.91;;;12.96;89.75
28630;BME280;15817;42.130;24.762;2023-05-02T03:51:33;100457.16;;;12.98;89.86
28630;BME280;15817;42.130;24.762;2023-05-02T03:54:00;100453.59;;;13.01;89.99
28630;BME280;15817;42.130;24.762;2023-05-02T03:56:31;100454.41;;;13.11;89.96
28630;BME280;15817;42.130;24.762;2023-05-02T03:59:08;100466.81;;;13.21;89.49
28630;BME280;15817;42.130;24.762;2023-05-02T04:01:36;100468.59;;;13.20;89.40
28630;BME280;15817;42.130;24.762;2023-05-02T04:04:02;100458.84;;;13.13;89.55
28630;BME280;15817;42.130;24.762;2023-05-02T04:06:33;100467.72;;;13.21;89.44
28630;BME280;15817;42.130;24.762;2023-05-02T04:09:03;100469.50;;;13.19;89.05
28630;BME280;15817;42.130;24.762;2023-05-02T04:11:36;100460.72;;;13.00;89.28
28630;BME280;15817;42.130;24.762;2023-05-02T04:14:06;100479.41;;;12.94;89.88
28630;BME280;15817;42.130;24.762;2023-05-02T04:16:32;100483.91;;;12.89;90.63
28630;BME280;15817;42.130;24.762;2023-05-02T04:21:46;100483.88;;;12.94;91.33
28630;BME280;15817;42.130;24.762;2023-05-02T04:24:13;100479.41;;;12.99;90.96
28630;BME280;15817;42.130;24.762;2023-05-02T04:26:42;100488.22;;;13.10;90.86
28630;BME280;15817;42.130;24.762;2023-05-02T04:29:10;100481.97;;;13.19;90.46
28630;BME280;15817;42.130;24.762;2023-05-02T04:31:37;100490.81;;;13.28;89.22
28630;BME280;15817;42.130;24.762;2023-05-02T04:34:05;100482.78;;;13.27;87.49
28630;BME280;15817;42.130;24.762;2023-05-02T04:36:36;100501.47;;;13.34;86.84
28630;BME280;15817;42.130;24.762;2023-05-02T04:39:02;100495.22;;;13.34;86.46
28630;BME280;15817;42.130;24.762;2023-05-02T04:41:31;100497.03;;;13.33;86.24
28630;BME280;15817;42.130;24.762;2023-05-02T04:44:01;100493.44;;;13.36;86.31
28630;BME280;15817;42.130;24.762;2023-05-02T04:46:27;100478.31;;;13.36;86.64
28630;BME280;15817;42.130;24.762;2023-05-02T04:48:53;100492.50;;;13.41;86.05
28630;BME280;15817;42.130;24.762;2023-05-02T04:51:18;100468.44;;;13.40;85.84
28630;BME280;15817;42.130;24.762;2023-05-02T04:53:47;100481.72;;;13.51;84.80
28630;BME280;15817;42.130;24.762;2023-05-02T04:56:13;100476.44;;;13.49;83.64
28630;BME280;15817;42.130;24.762;2023-05-02T04:58:39;100485.25;;;13.56;82.88
28630;BME280;15817;42.130;24.762;2023-05-02T05:01:07;100495.88;;;13.62;82.49
28630;BME280;15817;42.130;24.762;2023-05-02T05:03:33;100487.03;;;13.60;81.88
28630;BME280;15817;42.130;24.762;2023-05-02T05:05:59;100501.22;;;13.66;81.68
28630;BME280;15817;42.130;24.762;2023-05-02T05:08:27;100490.53;;;13.63;82.02
28630;BME280;15817;42.130;24.762;2023-05-02T05:10:53;100493.19;;;13.68;81.54
28630;BME280;15817;42.130;24.762;2023-05-02T05:13:20;100494.91;;;13.73;81.49
28630;BME280;15817;42.130;24.762;2023-05-02T05:15:47;100491.38;;;13.71;81.11
28630;BME280;15817;42.130;24.762;2023-05-02T05:18:16;100488.72;;;13.68;80.96
28630;BME280;15817;42.130;24.762;2023-05-02T05:20:42;100494.88;;;13.76;81.22
28630;BME280;15817;42.130;24.762;2023-05-02T05:23:10;100485.09;;;13.74;81.12
28630;BME280;15817;42.130;24.762;2023-05-02T05:25:36;100494.84;;;13.81;81.13
28630;BME280;15817;42.130;24.762;2023-05-02T05:28:02;100500.13;;;13.86;81.62
28630;BME280;15817;42.130;24.762;2023-05-02T05:30:30;100499.22;;;13.88;82.14
28630;BME280;15817;42.130;24.762;2023-05-02T05:32:58;100494.84;;;13.81;81.65
28630;BME280;15817;42.130;24.762;2023-05-02T05:35:24;100499.25;;;13.87;82.53
28630;BME280;15817;42.130;24.762;2023-05-02T05:37:51;100507.25;;;13.90;82.55
28630;BME280;15817;42.130;24.762;2023-05-02T05:40:20;100494.84;;;13.84;82.33
28630;BME280;15817;42.130;24.762;2023-05-02T05:42:50;100503.72;;;13.85;83.07
28630;BME280;15817;42.130;24.762;2023-05-02T05:45:22;100501.91;;;13.87;83.27
28630;BME280;15817;42.130;24.762;2023-05-02T05:47:48;100533.00;;;13.98;83.46
28630;BME280;15817;42.130;24.762;2023-05-02T05:50:14;100520.59;;;13.94;83.35
28630;BME280;15817;42.130;24.762;2023-05-02T05:52:41;100521.47;;;13.95;83.98
28630;BME280;15817;42.130;24.762;2023-05-02T05:55:07;100499.22;;;13.90;84.25
28630;BME280;15817;42.130;24.762;2023-05-02T05:57:36;100523.28;;;13.90;84.60
28630;BME280;15817;42.130;24.762;2023-05-02T06:00:05;100512.63;;;13.87;85.34
28630;BME280;15817;42.130;24.762;2023-05-02T06:02:41;100524.09;;;13.98;85.58
28630;BME280;15817;42.130;24.762;2023-05-02T06:05:09;100530.34;;;13.97;84.54
28630;BME280;15817;42.130;24.762;2023-05-02T06:07:35;100517.06;;;13.86;84.92
28630;BME280;15817;42.130;24.762;2023-05-02T06:10:30;100522.41;;;13.89;85.27
28630;BME280;15817;42.130;24.762;2023-05-02T06:12:56;100508.06;;;13.96;85.13
28630;BME280;15817;42.130;24.762;2023-05-02T06:15:34;100518.72;;;14.02;85.88
28630;BME280;15817;42.130;24.762;2023-05-02T06:18:04;100515.06;;;14.08;85.77
28630;BME280;15817;42.130;24.762;2023-05-02T06:20:29;100521.28;;;14.13;85.23
28630;BME280;15817;42.130;24.762;2023-05-02T06:22:58;100524.78;;;14.20;84.90
28630;BME280;15817;42.130;24.762;2023-05-02T06:25:24;100530.09;;;14.24;84.44
28630;BME280;15817;42.130;24.762;2023-05-02T06:27:50;100521.16;;;14.25;84.64
28630;BME280;15817;42.130;24.762;2023-05-02T06:30:16;100506.00;;;14.24;84.94
28630;BME280;15817;42.130;24.762;2023-05-02T06:32:42;100512.13;;;14.34;85.95
28630;BME280;15817;42.130;24.762;2023-05-02T06:35:09;100508.56;;;14.35;86.58
28630;BME280;15817;42.130;24.762;2023-05-02T06:37:36;100504.97;;;14.37;86.34
28630;BME280;15817;42.130;24.762;2023-05-02T06:40:01;100508.47;;;14.45;85.43
28630;BME280;15817;42.130;24.762;2023-05-02T06:42:27;100506.69;;;14.46;85.66
28630;BME280;15817;42.130;24.762;2023-05-02T06:44:54;100515.56;;;14.51;84.92
28630;BME280;15817;42.130;24.762;2023-05-02T06:47:20;100496.81;;;14.53;84.58
28630;BME280;15817;42.130;24.762;2023-05-02T06:49:50;100500.38;;;14.53;83.58
28630;BME280;15817;42.130;24.762;2023-05-02T06:52:16;100487.91;;;14.51;81.66
28630;BME280;15817;42.130;24.762;2023-05-02T06:54:42;100488.72;;;14.57;80.77
28630;BME280;15817;42.130;24.762;2023-05-02T06:57:08;100507.31;;;14.66;80.40
28630;BME280;15817;42.130;24.762;2023-05-02T06:59:35;100495.72;;;14.66;79.32
28630;BME280;15817;42.130;24.762;2023-05-02T07:02:01;100500.13;;;14.71;79.04
28630;BME280;15817;42.130;24.762;2023-05-02T07:04:27;100491.19;;;14.72;77.11
28630;BME280;15817;42.130;24.762;2023-05-02T07:06:52;100495.56;;;14.79;76.22
28630;BME280;15817;42.130;24.762;2023-05-02T07:09:18;100499.09;;;14.81;74.69
28630;BME280;15817;42.130;24.762;2023-05-02T07:11:44;100493.69;;;14.88;72.56
28630;BME280;15817;42.130;24.762;2023-05-02T07:14:10;100498.97;;;14.91;72.11
28630;BME280;15817;42.130;24.762;2023-05-02T07:16:35;100490.06;;;14.90;72.13
28630;BME280;15817;42.130;24.762;2023-05-02T07:19:01;100498.00;;;14.99;73.34
28630;BME280;15817;42.130;24.762;2023-05-02T07:21:29;100492.56;;;15.02;71.96
28630;BME280;15817;42.130;24.762;2023-05-02T07:23:56;100489.84;;;15.05;68.43
28630;BME280;15817;42.130;24.762;2023-05-02T07:26:22;100499.53;;;15.15;66.98
28630;BME280;15817;42.130;24.762;2023-05-02T07:28:48;100496.81;;;15.18;65.40
28630;BME280;15817;42.130;24.762;2023-05-02T07:31:14;100504.72;;;15.28;64.92
28630;BME280;15817;42.130;24.762;2023-05-02T07:33:40;100491.28;;;15.31;66.02
28630;BME280;15817;42.130;24.762;2023-05-02T07:36:05;100488.38;;;15.46;65.94
28630;BME280;15817;42.130;24.762;2023-05-02T07:38:31;100494.41;;;15.60;65.23
28630;BME280;15817;42.130;24.762;2023-05-02T07:40:57;100495.09;;;15.71;64.54
28630;BME280;15817;42.130;24.762;2023-05-02T07:43:23;100486.84;;;15.83;64.78
28630;BME280;15817;42.130;24.762;2023-05-02T07:45:49;100491.00;;;16.03;64.67
28630;BME280;15817;42.130;24.762;2023-05-02T07:48:15;100476.31;;;16.22;64.21
28630;BME280;15817;42.130;24.762;2023-05-02T07:50:41;100481.34;;;16.39;62.96
28630;BME280;15817;42.130;24.762;2023-05-02T07:53:06;100467.44;;;16.63;61.92
28630;BME280;15817;42.130;24.762;2023-05-02T07:55:32;100470.38;;;16.94;60.26
28630;BME280;15817;42.130;24.762;2023-05-02T07:57:58;100479.34;;;17.31;58.75
28630;BME280;15817;42.130;24.762;2023-05-02T08:00:25;100459.84;;;17.59;57.23
28630;BME280;15817;42.130;24.762;2023-05-02T08:02:50;100467.09;;;17.92;54.40
28630;BME280;15817;42.130;24.762;2023-05-02T08:05:16;100467.09;;;18.25;51.69
28630;BME280;15817;42.130;24.762;2023-05-02T08:07:45;100466.09;;;18.61;52.38
28630;BME280;15817;42.130;24.762;2023-05-02T08:10:14;100457.69;;;18.72;50.24
28630;BME280;15817;42.130;24.762;2023-05-02T08:12:40;100473.97;;;18.98;50.11
28630;BME280;15817;42.130;24.762;2023-05-02T08:15:08;100462.72;;;19.13;47.18
28630;BME280;15817;42.130;24.762;2023-05-02T08:17:34;100469.25;;;19.34;45.89
28630;BME280;15817;42.130;24.762;2023-05-02T08:20:00;100459.41;;;19.61;45.25
28630;BME280;15817;42.130;24.762;2023-05-02T08:22:26;100462.34;;;19.80;43.77
28630;BME280;15817;42.130;24.762;2023-05-02T08:24:52;100449.59;;;20.10;44.19
28630;BME280;15817;42.130;24.762;2023-05-02T08:27:17;100436.72;;;20.18;42.78
28630;BME280;15817;42.130;24.762;2023-05-02T08:29:43;100454.69;;;20.44;42.00
28630;BME280;15817;42.130;24.762;2023-05-02T08:32:09;100438.78;;;20.59;41.21
28630;BME280;15817;42.130;24.762;2023-05-02T08:34:34;100445.97;;;20.84;41.36
28630;BME280;15817;42.130;24.762;2023-05-02T08:37:01;100432.53;;;21.04;40.32
28630;BME280;15817;42.130;24.762;2023-05-02T08:39:26;100454.41;;;21.21;39.18
28630;BME280;15817;42.130;24.762;2023-05-02T08:41:52;100432.56;;;21.26;39.71
28630;BME280;15817;42.130;24.762;2023-05-02T08:44:20;100443.78;;;21.39;38.40
28630;BME280;15817;42.130;24.762;2023-05-02T08:46:47;100450.41;;;21.53;38.58
28630;BME280;15817;42.130;24.762;2023-05-02T08:49:17;100432.78;;;21.85;38.04
28630;BME280;15817;42.130;24.762;2023-05-02T08:51:54;100430.19;;;21.82;37.65
28630;BME280;15817;42.130;24.762;2023-05-02T08:54:22;100426.94;;;21.94;36.71
28630;BME280;15817;42.130;24.762;2023-05-02T08:56:51;100429.06;;;22.28;36.76
28630;BME280;15817;42.130;24.762;2023-05-02T08:59:17;100424.38;;;22.52;37.21
28630;BME280;15817;42.130;24.762;2023-05-02T09:01:43;100423.59;;;22.69;36.65
28630;BME280;15817;42.130;24.762;2023-05-02T09:04:12;100420.81;;;22.70;35.80
28630;BME280;15817;42.130;24.762;2023-05-02T09:06:39;100416.69;;;22.82;36.06
28630;BME280;15817;42.130;24.762;2023-05-02T09:09:05;100423.50;;;22.91;35.32
28630;BME280;15817;42.130;24.762;2023-05-02T09:11:32;100407.88;;;22.77;33.57
28630;BME280;15817;42.130;24.762;2023-05-02T09:13:58;100415.22;;;22.94;34.35
28630;BME280;15817;42.130;24.762;2023-05-02T09:16:28;100407.00;;;22.95;34.94
28630;BME280;15817;42.130;24.762;2023-05-02T09:18:55;100403.84;;;22.86;34.07
28630;BME280;15817;42.130;24.762;2023-05-02T09:21:26;100404.06;;;23.00;32.82
28630;BME280;15817;42.130;24.762;2023-05-02T09:23:59;100403.06;;;23.20;33.20
28630;BME280;15817;42.130;24.762;2023-05-02T09:28:54;100393.19;;;23.55;31.68
28630;BME280;15817;42.130;24.762;2023-05-02T09:31:25;100401.53;;;23.69;32.11
28630;BME280;15817;42.130;24.762;2023-05-02T09:33:53;100390.59;;;23.88;32.31
28630;BME280;15817;42.130;24.762;2023-05-02T09:36:20;100385.31;;;23.85;31.06
28630;BME280;15817;42.130;24.762;2023-05-02T09:38:47;100373.19;;;23.74;31.88
28630;BME280;15817;42.130;24.762;2023-05-02T09:41:14;100391.78;;;23.82;32.00
28630;BME280;15817;42.130;24.762;2023-05-02T09:43:40;100369.81;;;23.69;30.88
28630;BME280;15817;42.130;24.762;2023-05-02T09:46:10;100382.75;;;23.81;30.16
28630;BME280;15817;42.130;24.762;2023-05-02T09:48:55;100363.41;;;24.05;30.11
28630;BME280;15817;42.130;24.762;2023-05-02T09:51:23;100371.31;;;23.92;30.25
28630;BME280;15817;42.130;24.762;2023-05-02T09:53:49;100366.63;;;23.96;30.34
28630;BME280;15817;42.130;24.762;2023-05-02T09:56:17;100372.63;;;23.85;29.87
28630;BME280;15817;42.130;24.762;2023-05-02T09:58:43;100359.00;;;24.02;29.95
28630;BME280;15817;42.130;24.762;2023-05-02T10:01:18;100376.69;;;24.11;29.79
28630;BME280;15817;42.130;24.762;2023-05-02T10:03:47;100362.22;;;24.10;30.20
28630;BME280;15817;42.130;24.762;2023-05-02T10:06:17;100353.78;;;24.15;29.90
28630;BME280;15817;42.130;24.762;2023-05-02T10:08:43;100354.41;;;24.37;30.23
28630;BME280;15817;42.130;24.762;2023-05-02T10:11:12;100355.75;;;24.62;30.33
28630;BME280;15817;42.130;24.762;2023-05-02T10:13:42;100357.00;;;24.72;30.49
28630;BME280;15817;42.130;24.762;2023-05-02T10:16:11;100337.03;;;24.07;30.56
28630;BME280;15817;42.130;24.762;2023-05-02T10:18:52;100350.53;;;24.08;29.18
28630;BME280;15817;42.130;24.762;2023-05-02T10:21:24;100355.84;;;24.44;29.88
28630;BME280;15817;42.130;24.762;2023-05-02T10:23:53;100345.41;;;24.52;29.58
28630;BME280;15817;42.130;24.762;2023-05-02T10:26:22;100343.47;;;24.70;28.85
28630;BME280;15817;42.130;24.762;2023-05-02T10:28:57;100342.69;;;24.84;29.11
28630;BME280;15817;42.130;24.762;2023-05-02T10:31:25;100331.28;;;24.62;29.62
28630;BME280;15817;42.130;24.762;2023-05-02T10:33:51;100339.59;;;24.59;29.80
28630;BME280;15817;42.130;24.762;2023-05-02T10:36:21;100329.88;;;24.70;29.94
28630;BME280;15817;42.130;24.762;2023-05-02T10:38:47;100340.16;;;24.65;29.07
28630;BME280;15817;42.130;24.762;2023-05-02T10:41:17;100325.66;;;24.49;30.13
28630;BME280;15817;42.130;24.762;2023-05-02T10:43:48;100329.34;;;24.64;30.11
28630;BME280;15817;42.130;24.762;2023-05-02T10:46:37;100333.66;;;24.83;30.39
28630;BME280;15817;42.130;24.762;2023-05-02T10:49:06;100334.63;;;24.67;29.37
28630;BME280;15817;42.130;24.762;2023-05-02T10:52:24;100329.97;;;24.84;29.21
28630;BME280;15817;42.130;24.762;2023-05-02T10:55:35;100329.09;;;24.84;28.81
28630;BME280;15817;42.130;24.762;2023-05-02T11:10:56;100311.38;;;24.45;29.28
28630;BME280;15817;42.130;24.762;2023-05-02T11:14:09;100318.81;;;24.58;28.71
28630;BME280;15817;42.130;24.762;2023-05-02T11:22:57;100299.88;;;24.87;29.24
28630;BME280;15817;42.130;24.762;2023-05-02T11:25:34;100304.53;;;24.54;28.98
28630;BME280;15817;42.130;24.762;2023-05-02T11:31:05;100299.34;;;23.83;29.60
28630;BME280;15817;42.130;24.762;2023-05-02T11:33:31;100298.44;;;23.83;29.81
28630;BME280;15817;42.130;24.762;2023-05-02T11:36:03;100302.44;;;23.93;29.44
28630;BME280;15817;42.130;24.762;2023-05-02T11:38:40;100294.25;;;24.10;29.35
28630;BME280;15817;42.130;24.762;2023-05-02T11:41:05;100287.28;;;24.22;28.98
28630;BME280;15817;42.130;24.762;2023-05-02T11:43:31;100286.50;;;24.36;29.15
28630;BME280;15817;42.130;24.762;2023-05-02T11:45:58;100278.91;;;24.42;29.74
28630;BME280;15817;42.130;24.762;2023-05-02T11:48:29;100274.59;;;24.38;29.20
28630;BME280;15817;42.130;24.762;2023-05-02T11:50:57;100269.84;;;24.58;29.04
28630;BME280;15817;42.130;24.762;2023-05-02T11:53:27;100268.97;;;24.41;28.64
28630;BME280;15817;42.130;24.762;2023-05-02T11:55:55;100256.78;;;24.00;28.29
28630;BME280;15817;42.130;24.762;2023-05-02T11:58:26;100268.81;;;24.44;28.93
28630;BME280;15817;42.130;24.762;2023-05-02T12:01:18;100245.09;;;24.46;29.39
28630;BME280;15817;42.130;24.762;2023-05-02T12:03:44;100261.59;;;24.59;29.61
28630;BME280;15817;42.130;24.762;2023-05-02T12:06:16;100230.28;;;24.36;29.21
28630;BME280;15817;42.130;24.762;2023-05-02T12:11:32;100233.09;;;24.50;29.13
28630;BME280;15817;42.130;24.762;2023-05-02T12:13:59;100221.34;;;24.34;29.45
28630;BME280;15817;42.130;24.762;2023-05-02T12:16:31;100227.50;;;24.53;30.12
28630;BME280;15817;42.130;24.762;2023-05-02T12:19:23;100234.47;;;24.58;29.59
28630;BME280;15817;42.130;24.762;2023-05-02T12:22:03;100214.47;;;24.74;29.59
28630;BME280;15817;42.130;24.762;2023-05-02T12:24:30;100219.22;;;24.71;29.10
28630;BME280;15817;42.130;24.762;2023-05-02T12:27:16;100219.50;;;24.66;29.07
28630;BME280;15817;42.130;24.762;2023-05-02T12:29:52;100205.81;;;24.68;28.93
28630;BME280;15817;42.130;24.762;2023-05-02T12:32:31;100212.63;;;24.75;28.85
28630;BME280;15817;42.130;24.762;2023-05-02T12:34:58;100187.41;;;24.57;28.27
28630;BME280;15817;42.130;24.762;2023-05-02T12:37:30;100188.69;;;24.66;29.26
28630;BME280;15817;42.130;24.762;2023-05-02T12:40:23;100193.50;;;24.61;28.78
28630;BME280;15817;42.130;24.762;2023-05-02T12:43:04;100185.88;;;24.67;29.24
28630;BME280;15817;42.130;24.762;2023-05-02T12:45:33;100180.88;;;24.60;28.65
28630;BME280;15817;42.130;24.762;2023-05-02T12:48:26;100165.88;;;24.68;29.00
28630;BME280;15817;42.130;24.762;2023-05-02T12:50:55;100157.28;;;24.60;29.13
28630;BME280;15817;42.130;24.762;2023-05-02T12:53:43;100165.88;;;24.52;28.85
28630;BME280;15817;42.130;24.762;2023-05-02T12:56:12;100152.22;;;24.54;29.59
28630;BME280;15817;42.130;24.762;2023-05-02T12:58:47;100162.94;;;24.41;28.68
28630;BME280;15817;42.130;24.762;2023-05-02T13:01:17;100155.03;;;24.37;28.72
28630;BME280;15817;42.130;24.762;2023-05-02T13:03:43;100145.44;;;24.61;29.31
28630;BME280;15817;42.130;24.762;2023-05-02T13:06:09;100156.03;;;24.66;28.92
28630;BME280;15817;42.130;24.762;2023-05-02T13:08:35;100152.38;;;24.51;28.36
28630;BME280;15817;42.130;24.762;2023-05-02T13:11:04;100137.56;;;24.57;28.58
28630;BME280;15817;42.130;24.762;2023-05-02T13:13:34;100134.22;;;24.51;28.72
28630;BME280;15817;42.130;24.762;2023-05-02T13:16:02;100137.72;;;24.53;29.27
28630;BME280;15817;42.130;24.762;2023-05-02T13:18:29;100149.06;;;24.46;28.82
28630;BME280;15817;42.130;24.762;2023-05-02T13:20:55;100145.41;;;24.31;28.72
28630;BME280;15817;42.130;24.762;2023-05-02T13:23:20;100146.88;;;24.21;28.41
28630;BME280;15817;42.130;24.762;2023-05-02T13:25:46;100134.69;;;24.28;29.07
28630;BME280;15817;42.130;24.762;2023-05-02T13:28:12;100146.34;;;24.46;29.72
28630;BME280;15817;42.130;24.762;2023-05-02T13:30:38;100148.78;;;24.50;29.40
28630;BME280;15817;42.130;24.762;2023-05-02T13:33:04;100133.47;;;24.34;28.84
28630;BME280;15817;42.130;24.762;2023-05-02T13:35:32;100153.63;;;24.30;28.98
28630;BME280;15817;42.130;24.762;2023-05-02T13:38:02;100135.91;;;24.07;28.66
28630;BME280;15817;42.130;24.762;2023-05-02T13:40:28;100141.06;;;24.11;29.01
28630;BME280;15817;42.130;24.762;2023-05-02T13:42:53;100134.84;;;24.09;29.41